Myrtle Beach, South Carolina
Current Conditions -  °F | °C
As of 9:45 PM on Monday 22 Dec 2014 (Local Time) from KMYR Reporting Station
Haze Haze  
Wind Chill: 42°   Ceiling: 300
Heat Index: 46°   Visibility: 2mi
Dew Point: 43°   Wind: 8mph
Humidity: 87%   Direction: 10°N
Pressure: 30.04"   Gusts: NA
Location:  33.69°N, 78.88°W
Report Text: KMYR 230245Z 01007KT 2SM BR OVC003 08/06 A3004
Loading
Personal Weather Stations






























Interactive Weather Map New forecast layout! Learn more

10-Day Weather Forecast

Advertisements
Track Severe Weather on mobile